VIE weather

Vienna International Airport
Vienna, Vienna, Austria

Public forecast

Using degrees Celsius for public forecast. Weather courtesy of forecast.io.

METAR (pilot weather report)

Retrieved 2019/02/17 13:20 UTC (29 minutes ago):

LOWW 171320Z 12003KT 060V170 CAVOK 12/02 Q1026 NOSIG

TAF (pilot weather forecast)

Retrieved 2019/02/17 12:36 UTC (1 hour ago):

TAF LOWW 171115Z 1712/1818 13004KT CAVOK TX09/1714Z TNM02/1806Z BECMG 1720/1722 4000 BR NSC BECMG 1723/1802 2000 FZBCFG SCT002 BECMG 1802/1804 0400 FZFG VV001 BECMG 1810/1812 12007KT 7000 NSW FEW012